
Distance (Route):
Temperature : 14.1°C
Humidity : 0%
Pressure : 0hPa| Receiver | Frames | First received | Last received |
|---|---|---|---|
| ARGUS2 | 315 | 2026-09-01 11:22:34 | 2026-09-01 13:25:46 |
| Receiver | Date | Latitude | Longitude | Direction | Speed | Altitude | Climb | Temperature | Humidity | Pressure | Voltage | Killtimer | Uptime | BKT | XDATA |
|---|---|---|---|---|---|---|---|---|---|---|---|---|---|---|---|
| ARGUS2 | 2026-09-01 13:25:46 | 27.57873 | -82.84968 | 266° | 9km/h | 2212m | -11.6m/s | 14.1°C | 0% | 0hPa | 0V | 00:00:00 | 00:00:00 | 00:00:00 | |
| ARGUS2 | 2026-09-01 13:25:25 | 27.57862 | -82.84897 | 278° | 11km/h | 2478m | -12.5m/s | 12.6°C | 0% | 0hPa | 0V | 00:00:00 | 00:00:00 | 00:00:00 | |
| ARGUS2 | 2026-09-01 13:25:04 | 27.57858 | -82.84849 | 289° | 5km/h | 2738m | -13.0m/s | 11.2°C | 0% | 0hPa | 0V | 00:00:00 | 00:00:00 | 00:00:00 | |
| ARGUS2 | 2026-09-01 13:24:43 | 27.57855 | -82.84804 | 262° | 9km/h | 3014m | -12.7m/s | 10.2°C | 0% | 0hPa | 0V | 00:00:00 | 00:00:00 | 00:00:00 | |
| ARGUS2 | 2026-09-01 13:24:23 | 27.57878 | -82.84760 | 224° | 9km/h | 3270m | -12.8m/s | 9.0°C | 0% | 0hPa | 0V | 00:00:00 | 00:00:00 | 00:00:00 | |
| ARGUS2 | 2026-09-01 13:24:03 | 27.57923 | -82.84720 | 219° | 15km/h | 3540m | -13.0m/s | 7.4°C | 0% | 0hPa | 0V | 00:00:00 | 00:00:00 | 00:00:00 | |
| ARGUS2 | 2026-09-01 13:23:42 | 27.57963 | -82.84670 | 245° | 13km/h | 3804m | -13.4m/s | 5.7°C | 0% | 0hPa | 0V | 00:00:00 | 00:00:00 | 00:00:00 | |
| ARGUS2 | 2026-09-01 13:23:22 | 27.57992 | -82.84588 | 252° | 20km/h | 4081m | -13.2m/s | 4.1°C | 0% | 0hPa | 0V | 00:00:00 | 00:00:00 | 00:00:00 | |
| ARGUS2 | 2026-09-01 13:23:01 | 27.58028 | -82.84473 | 253° | 18km/h | 4349m | -13.2m/s | 2.8°C | 0% | 0hPa | 0V | 00:00:00 | 00:00:00 | 00:00:00 | |
| ARGUS2 | 2026-09-01 13:22:41 | 27.58072 | -82.84361 | 258° | 22km/h | 4628m | -13.0m/s | 1.4°C | 0% | 0hPa | 0V | 00:00:00 | 00:00:00 | 00:00:00 | |
| ARGUS2 | 2026-09-01 13:22:19 | 27.58107 | -82.84254 | 254° | 22km/h | 4910m | -13.2m/s | -0.1°C | 0% | 0hPa | 0V | 00:00:00 | 00:00:00 | 00:00:00 | |
| ARGUS2 | 2026-09-01 13:21:58 | 27.58136 | -82.84148 | 240° | 16km/h | 5197m | -13.9m/s | -2.1°C | 0% | 0hPa | 0V | 00:00:00 | 00:00:00 | 00:00:00 | |
| ARGUS2 | 2026-09-01 13:21:37 | 27.58158 | -82.84042 | 265° | 22km/h | 5494m | -14.8m/s | -3.4°C | 0% | 0hPa | 0V | 00:00:00 | 00:00:00 | 00:00:00 | |
| ARGUS2 | 2026-09-01 13:21:14 | 27.58184 | -82.83909 | 260° | 22km/h | 5849m | -15.4m/s | -5.8°C | 0% | 0hPa | 0V | 00:00:00 | 00:00:00 | 00:00:00 | |
| ARGUS2 | 2026-09-01 13:15:30 | 27.58925 | -82.83690 | 173° | 9km/h | 11255m | -17.0m/s | -43.0°C | 0% | 0hPa | 0V | 00:00:00 | 00:00:00 | 00:00:00 | |
| ARGUS2 | 2026-09-01 13:15:04 | 27.58949 | -82.83710 | 140° | 4km/h | 11695m | -18.0m/s | -46.4°C | 0% | 0hPa | 0V | 00:00:00 | 00:00:00 | 00:00:00 | |
| ARGUS2 | 2026-09-01 13:14:44 | 27.58999 | -82.83716 | 185° | 18km/h | 12059m | -17.8m/s | -48.8°C | 0% | 0hPa | 0V | 00:00:00 | 00:00:00 | 00:00:00 | |
| ARGUS2 | 2026-09-01 13:14:17 | 27.59097 | -82.83694 | 195° | 16km/h | 12553m | -18.6m/s | -52.7°C | 0% | 0hPa | 0V | 00:00:00 | 00:00:00 | 00:00:00 | |
| ARGUS2 | 2026-09-01 13:13:56 | 27.59178 | -82.83675 | 192° | 16km/h | 12935m | -17.8m/s | -56.2°C | 0% | 0hPa | 0V | 00:00:00 | 00:00:00 | 00:00:00 | |
| ARGUS2 | 2026-09-01 13:13:36 | 27.59270 | -82.83646 | 196° | 20km/h | 13303m | -17.6m/s | -58.8°C | 0% | 0hPa | 0V | 00:00:00 | 00:00:00 | 00:00:00 | |
| ARGUS2 | 2026-09-01 13:13:14 | 27.59371 | -82.83627 | 174° | 18km/h | 13674m | -17.5m/s | -61.7°C | 0% | 0hPa | 0V | 00:00:00 | 00:00:00 | 00:00:00 | |
| ARGUS2 | 2026-09-01 13:12:54 | 27.59468 | -82.83665 | 166° | 18km/h | 14000m | -16.4m/s | -64.5°C | 0% | 0hPa | 0V | 00:00:00 | 00:00:00 | 00:00:00 | |
| ARGUS2 | 2026-09-01 13:12:33 | 27.59556 | -82.83682 | 197° | 11km/h | 14360m | -16.9m/s | -66.7°C | 0% | 0hPa | 0V | 00:00:00 | 00:00:00 | 00:00:00 | |
| ARGUS2 | 2026-09-01 13:12:13 | 27.59558 | -82.83618 | 288° | 16km/h | 14709m | -17.8m/s | -69.4°C | 0% | 0hPa | 0V | 00:00:00 | 00:00:00 | 00:00:00 | |
| ARGUS2 | 2026-09-01 13:11:52 | 27.59562 | -82.83584 | 178° | 13km/h | 15086m | -18.1m/s | -69.2°C | 0% | 0hPa | 0V | 00:00:00 | 00:00:00 | 00:00:00 | |
| ARGUS2 | 2026-09-01 13:11:32 | 27.59671 | -82.83544 | 196° | 27km/h | 15455m | -18.6m/s | -68.1°C | 0% | 0hPa | 0V | 00:00:00 | 00:00:00 | 00:00:00 | |
| ARGUS2 | 2026-09-01 13:11:12 | 27.59821 | -82.83496 | 199° | 35km/h | 15851m | -18.8m/s | -66.5°C | 0% | 0hPa | 0V | 00:00:00 | 00:00:00 | 00:00:00 | |
| ARGUS2 | 2026-09-01 13:10:51 | 27.59949 | -82.83418 | 229° | 18km/h | 16227m | -18.8m/s | -68.3°C | 0% | 0hPa | 0V | 00:00:00 | 00:00:00 | 00:00:00 | |
| ARGUS2 | 2026-09-01 13:10:31 | 27.60003 | -82.83361 | 198° | 15km/h | 16625m | -19.2m/s | -67.4°C | 0% | 0hPa | 0V | 00:00:00 | 00:00:00 | 00:00:00 | |
| ARGUS2 | 2026-09-01 13:10:10 | 27.60093 | -82.83281 | 222° | 20km/h | 17013m | -19.7m/s | -67.2°C | 0% | 0hPa | 0V | 00:00:00 | 00:00:00 | 00:00:00 | |
| ARGUS2 | 2026-09-01 13:09:50 | 27.60161 | -82.83169 | 216° | 13km/h | 17429m | -20.0m/s | -68.1°C | 0% | 0hPa | 0V | 00:00:00 | 00:00:00 | 00:00:00 | |
| ARGUS2 | 2026-09-01 13:09:29 | 27.60186 | -82.83067 | 272° | 24km/h | 17836m | -20.5m/s | -66.7°C | 0% | 0hPa | 0V | 00:00:00 | 00:00:00 | 00:00:00 | |
| ARGUS2 | 2026-09-01 13:09:09 | 27.60185 | -82.82975 | 195° | 16km/h | 18241m | -16.5m/s | -66.1°C | 0% | 0hPa | 0V | 00:00:00 | 00:00:00 | 00:00:00 | |
| ARGUS2 | 2026-09-01 13:08:48 | 27.60312 | -82.82858 | 244° | 42km/h | 18574m | -17.9m/s | -64.1°C | 0% | 0hPa | 0V | 00:00:00 | 00:00:00 | 00:00:00 | |
| ARGUS2 | 2026-09-01 13:08:28 | 27.60345 | -82.82659 | 254° | 29km/h | 18944m | -17.3m/s | -64.5°C | 0% | 0hPa | 0V | 00:00:00 | 00:00:00 | 00:00:00 | |
| ARGUS2 | 2026-09-01 13:08:06 | 27.60430 | -82.82449 | 249° | 51km/h | 19301m | -16.9m/s | -63.8°C | 0% | 0hPa | 0V | 00:00:00 | 00:00:00 | 00:00:00 | |
| ARGUS2 | 2026-09-01 13:07:46 | 27.60470 | -82.82175 | 277° | 44km/h | 19648m | -16.9m/s | -63.7°C | 0% | 0hPa | 0V | 00:00:00 | 00:00:00 | 00:00:00 | |
| ARGUS2 | 2026-09-01 13:07:26 | 27.60474 | -82.81943 | 269° | 44km/h | 19999m | -16.4m/s | -63.3°C | 0% | 0hPa | 0V | 00:00:00 | 00:00:00 | 00:00:00 | |
| ARGUS2 | 2026-09-01 13:07:05 | 27.60442 | -82.81727 | 263° | 22km/h | 20409m | -20.5m/s | -62.4°C | 0% | 0hPa | 0V | 00:00:00 | 00:00:00 | 00:00:00 | |
| ARGUS2 | 2026-09-01 13:06:44 | 27.60451 | -82.81489 | 279° | 44km/h | 20829m | -22.1m/s | -61.5°C | 0% | 0hPa | 0V | 00:00:00 | 00:00:00 | 00:00:00 | |
| ARGUS2 | 2026-09-01 13:06:24 | 27.60454 | -82.81257 | 277° | 49km/h | 21288m | -27.4m/s | -59.2°C | 0% | 0hPa | 0V | 00:00:00 | 00:00:00 | 00:00:00 | |
| ARGUS2 | 2026-09-01 13:06:04 | 27.60439 | -82.80945 | 289° | 55km/h | 21863m | -28.4m/s | -55.1°C | 0% | 0hPa | 0V | 00:00:00 | 00:00:00 | 00:00:00 | |
| ARGUS2 | 2026-09-01 13:05:45 | 27.60330 | -82.80686 | 299° | 40km/h | 22392m | -28.2m/s | -55.4°C | 0% | 0hPa | 0V | 00:00:00 | 00:00:00 | 00:00:00 | |
| ARGUS2 | 2026-09-01 13:05:22 | 27.60218 | -82.80440 | 293° | 47km/h | 22935m | -21.7m/s | -54.0°C | 0% | 0hPa | 0V | 00:00:00 | 00:00:00 | 00:00:00 | |
| ARGUS2 | 2026-09-01 13:05:03 | 27.60130 | -82.80236 | 309° | 38km/h | 23366m | -21.8m/s | -55.5°C | 0% | 0hPa | 0V | 00:00:00 | 00:00:00 | 00:00:00 | |
| ARGUS2 | 2026-09-01 13:04:42 | 27.60135 | -82.80066 | 238° | 33km/h | 23882m | -30.2m/s | -55.3°C | 0% | 0hPa | 0V | 00:00:00 | 00:00:00 | 00:00:00 | |
| ARGUS2 | 2026-09-01 13:04:21 | 27.60257 | -82.79895 | 242° | 51km/h | 24556m | -29.2m/s | -55.2°C | 0% | 0hPa | 0V | 00:00:00 | 00:00:00 | 00:00:00 | |
| ARGUS2 | 2026-09-01 13:04:01 | 27.60370 | -82.79554 | 248° | 40km/h | 25140m | -26.6m/s | -52.4°C | 0% | 0hPa | 0V | 00:00:00 | 00:00:00 | 00:00:00 | |
| ARGUS2 | 2026-09-01 13:03:20 | 27.60366 | -82.79043 | 300° | 37km/h | 26184m | -22.1m/s | -48.4°C | 0% | 0hPa | 0V | 00:00:00 | 00:00:00 | 00:00:00 | |
| ARGUS2 | 2026-09-01 13:02:58 | 27.60311 | -82.78900 | 257° | 24km/h | 26651m | -22.4m/s | -48.6°C | 0% | 0hPa | 0V | 00:00:00 | 00:00:00 | 00:00:00 | |
| ARGUS2 | 2026-09-01 13:02:38 | 27.60379 | -82.78786 | 243° | 31km/h | 27107m | -23.6m/s | -50.0°C | 0% | 0hPa | 0V | 00:00:00 | 00:00:00 | 00:00:00 | |
| ARGUS2 | 2026-09-01 13:02:17 | 27.60432 | -82.78566 | 250° | 53km/h | 27601m | -23.8m/s | -49.0°C | 0% | 0hPa | 0V | 00:00:00 | 00:00:00 | 00:00:00 | |
| ARGUS2 | 2026-09-01 13:01:57 | 27.60456 | -82.78307 | 278° | 42km/h | 28100m | -28.8m/s | -48.4°C | 0% | 0hPa | 0V | 00:00:00 | 00:00:00 | 00:00:00 | |
| ARGUS2 | 2026-09-01 13:01:37 | 27.60458 | -82.78136 | 235° | 27km/h | 28744m | -34.9m/s | -48.2°C | 0% | 0hPa | 0V | 00:00:00 | 00:00:00 | 00:00:00 | |
| ARGUS2 | 2026-09-01 13:01:16 | 27.60596 | -82.77928 | 246° | 57km/h | 29486m | -40.1m/s | -48.0°C | 0% | 0hPa | 0V | 00:00:00 | 00:00:00 | 00:00:00 | |
| ARGUS2 | 2026-09-01 13:00:56 | 27.60650 | -82.77581 | 268° | 60km/h | 30147m | -25.4m/s | -46.7°C | 0% | 0hPa | 0V | 00:00:00 | 00:00:00 | 00:00:00 | |
| ARGUS2 | 2026-09-01 13:00:35 | 27.60764 | -82.77311 | 234° | 64km/h | 30666m | -26.1m/s | -45.7°C | 0% | 0hPa | 0V | 00:00:00 | 00:00:00 | 00:00:00 | |
| ARGUS2 | 2026-09-01 13:00:15 | 27.60909 | -82.76934 | 258° | 75km/h | 31218m | -25.6m/s | -44.3°C | 0% | 0hPa | 0V | 00:00:00 | 00:00:00 | 00:00:00 | |
| ARGUS2 | 2026-09-01 12:59:54 | 27.60899 | -82.76546 | 283° | 57km/h | 31749m | -27.7m/s | -38.1°C | 0% | 0hPa | 0V | 00:00:00 | 00:00:00 | 00:00:00 | |
| ARGUS2 | 2026-09-01 12:59:33 | 27.60872 | -82.76189 | 281° | 57km/h | 32364m | -32.3m/s | -36.6°C | 0% | 0hPa | 0V | 00:00:00 | 00:00:00 | 00:00:00 | |
| ARGUS2 | 2026-09-01 12:59:13 | 27.60723 | -82.75839 | 311° | 60km/h | 33060m | -34.8m/s | -37.0°C | 0% | 0hPa | 0V | 00:00:00 | 00:00:00 | 00:00:00 | |
| ARGUS2 | 2026-09-01 12:58:53 | 27.60573 | -82.75562 | 261° | 64km/h | 33603m | 6.1m/s | -36.1°C | 0% | 0hPa | 0V | 00:00:00 | 00:00:00 | 00:00:00 | |
| ARGUS2 | 2026-09-01 12:58:32 | 27.60443 | -82.75322 | 277° | 44km/h | 33472m | 8.6m/s | -36.0°C | 0% | 0hPa | 0V | 00:00:00 | 00:00:00 | 00:00:00 | |
| ARGUS2 | 2026-09-01 12:58:12 | 27.60290 | -82.75077 | 333° | 93km/h | 33330m | 2.8m/s | -36.4°C | 0% | 0hPa | 0V | 00:00:00 | 00:00:00 | 00:00:00 | |
| ARGUS2 | 2026-09-01 12:57:52 | 27.60143 | -82.74782 | 313° | 33km/h | 33193m | -0.1m/s | -36.4°C | 0% | 0hPa | 0V | 00:00:00 | 00:00:00 | 00:00:00 | |
| ARGUS2 | 2026-09-01 12:57:31 | 27.59916 | -82.74439 | 286° | 78km/h | 33051m | 1.3m/s | -37.4°C | 0% | 0hPa | 0V | 00:00:00 | 00:00:00 | 00:00:00 | |
| ARGUS2 | 2026-09-01 12:57:09 | 27.59712 | -82.74062 | 322° | 78km/h | 32896m | 6.9m/s | -37.6°C | 0% | 0hPa | 0V | 00:00:00 | 00:00:00 | 00:00:00 | |
| ARGUS2 | 2026-09-01 12:56:48 | 27.59540 | -82.73697 | 289° | 49km/h | 32769m | 4.6m/s | -36.7°C | 0% | 0hPa | 0V | 00:00:00 | 00:00:00 | 00:00:00 | |
| ARGUS2 | 2026-09-01 12:56:26 | 27.59398 | -82.73289 | 289° | 104km/h | 32632m | 1.7m/s | -36.4°C | 0% | 0hPa | 0V | 00:00:00 | 00:00:00 | 00:00:00 | |
| ARGUS2 | 2026-09-01 12:56:06 | 27.59280 | -82.72958 | 324° | 55km/h | 32515m | 7.2m/s | -36.7°C | 0% | 0hPa | 0V | 00:00:00 | 00:00:00 | 00:00:00 | |
| ARGUS2 | 2026-09-01 12:55:45 | 27.59284 | -82.72637 | 268° | 95km/h | 32396m | 3.9m/s | -36.9°C | 0% | 0hPa | 0V | 00:00:00 | 00:00:00 | 00:00:00 | |
| ARGUS2 | 2026-09-01 12:55:25 | 27.59266 | -82.72340 | 223° | 49km/h | 32284m | 10.8m/s | -37.1°C | 0% | 0hPa | 0V | 00:00:00 | 00:00:00 | 00:00:00 | |
| ARGUS2 | 2026-09-01 12:55:04 | 27.59264 | -82.71995 | 235° | 26km/h | 32160m | 1.4m/s | -38.0°C | 0% | 0hPa | 0V | 00:00:00 | 00:00:00 | 00:00:00 | |
| ARGUS2 | 2026-09-01 12:54:44 | 27.59279 | -82.71656 | 282° | 84km/h | 32040m | 4.5m/s | -38.5°C | 0% | 0hPa | 0V | 00:00:00 | 00:00:00 | 00:00:00 | |
| ARGUS2 | 2026-09-01 12:54:23 | 27.59248 | -82.71350 | 235° | 35km/h | 31911m | 11.0m/s | -38.6°C | 0% | 0hPa | 0V | 00:00:00 | 00:00:00 | 00:00:00 | |
| ARGUS2 | 2026-09-01 12:54:03 | 27.59256 | -82.71028 | 297° | 68km/h | 31785m | 14.7m/s | -39.3°C | 0% | 0hPa | 0V | 00:00:00 | 00:00:00 | 00:00:00 | |
| ARGUS2 | 2026-09-01 12:53:43 | 27.59285 | -82.70673 | 227° | 60km/h | 31645m | 6.2m/s | -40.0°C | 0% | 0hPa | 0V | 00:00:00 | 00:00:00 | 00:00:00 | |
| ARGUS2 | 2026-09-01 12:53:22 | 27.59308 | -82.70316 | 276° | 104km/h | 31511m | 0.5m/s | -41.3°C | 0% | 0hPa | 0V | 00:00:00 | 00:00:00 | 00:00:00 | |
| ARGUS2 | 2026-09-01 12:52:42 | 27.59391 | -82.69530 | 211° | 88km/h | 31207m | 6.4m/s | -44.8°C | 0% | 0hPa | 0V | 00:00:00 | 00:00:00 | 00:00:00 | |
| ARGUS2 | 2026-09-01 12:52:21 | 27.59511 | -82.69153 | 222° | 60km/h | 31056m | 8.3m/s | -45.0°C | 0% | 0hPa | 0V | 00:00:00 | 00:00:00 | 00:00:00 | |
| ARGUS2 | 2026-09-01 12:52:00 | 27.59667 | -82.68804 | 192° | 57km/h | 30907m | 9.4m/s | -45.0°C | 0% | 0hPa | 0V | 00:00:00 | 00:00:00 | 00:00:00 | |
| ARGUS2 | 2026-09-01 12:51:40 | 27.59873 | -82.68481 | 197° | 62km/h | 30758m | 11.8m/s | -44.9°C | 0% | 0hPa | 0V | 00:00:00 | 00:00:00 | 00:00:00 | |
| ARGUS2 | 2026-09-01 12:51:18 | 27.60083 | -82.68224 | 187° | 60km/h | 30612m | 12.2m/s | -44.9°C | 0% | 0hPa | 0V | 00:00:00 | 00:00:00 | 00:00:00 | |
| ARGUS2 | 2026-09-01 12:50:58 | 27.60290 | -82.68006 | 180° | 4km/h | 30472m | 7.5m/s | -44.5°C | 0% | 0hPa | 0V | 00:00:00 | 00:00:00 | 00:00:00 | |
| ARGUS2 | 2026-09-01 12:50:37 | 27.60467 | -82.67802 | 253° | 62km/h | 30339m | 8.1m/s | -45.2°C | 0% | 0hPa | 0V | 00:00:00 | 00:00:00 | 00:00:00 | |
| ARGUS2 | 2026-09-01 12:50:17 | 27.60534 | -82.67572 | 219° | 82km/h | 30210m | 4.3m/s | -45.1°C | 0% | 0hPa | 0V | 00:00:00 | 00:00:00 | 00:00:00 | |
| ARGUS2 | 2026-09-01 12:49:57 | 27.60554 | -82.67236 | 230° | 55km/h | 30076m | 8.2m/s | -46.1°C | 0% | 0hPa | 0V | 00:00:00 | 00:00:00 | 00:00:00 | |
| ARGUS2 | 2026-09-01 12:49:36 | 27.60543 | -82.66869 | 220° | 46km/h | 29946m | 6.5m/s | -47.1°C | 0% | 0hPa | 0V | 00:00:00 | 00:00:00 | 00:00:00 | |
| ARGUS2 | 2026-09-01 12:49:15 | 27.60588 | -82.66552 | 210° | 51km/h | 29809m | 5.3m/s | -47.1°C | 0% | 0hPa | 0V | 00:00:00 | 00:00:00 | 00:00:00 | |
| ARGUS2 | 2026-09-01 12:48:55 | 27.60631 | -82.66277 | 215° | 26km/h | 29687m | 10.4m/s | -47.0°C | 0% | 0hPa | 0V | 00:00:00 | 00:00:00 | 00:00:00 | |
| ARGUS2 | 2026-09-01 12:48:35 | 27.60733 | -82.65975 | 204° | 55km/h | 29554m | 9.3m/s | -48.0°C | 0% | 0hPa | 0V | 00:00:00 | 00:00:00 | 00:00:00 | |
| ARGUS2 | 2026-09-01 12:48:07 | 27.60908 | -82.65633 | 201° | 60km/h | 29375m | 9.4m/s | -48.0°C | 0% | 0hPa | 0V | 00:00:00 | 00:00:00 | 00:00:00 | |
| ARGUS2 | 2026-09-01 12:47:46 | 27.61051 | -82.65423 | 173° | 37km/h | 29245m | 3.2m/s | -48.1°C | 0% | 0hPa | 0V | 00:00:00 | 00:00:00 | 00:00:00 | |
| ARGUS2 | 2026-09-01 12:47:26 | 27.61183 | -82.65220 | 150° | 35km/h | 29109m | 6.7m/s | -48.3°C | 0% | 0hPa | 0V | 00:00:00 | 00:00:00 | 00:00:00 | |
| ARGUS2 | 2026-09-01 12:47:05 | 27.61295 | -82.65042 | 289° | 26km/h | 28979m | 4.3m/s | -48.1°C | 0% | 0hPa | 0V | 00:00:00 | 00:00:00 | 00:00:00 | |
| ARGUS2 | 2026-09-01 12:46:45 | 27.61373 | -82.64896 | 299° | 55km/h | 28840m | 0.7m/s | -47.7°C | 0% | 0hPa | 0V | 00:00:00 | 00:00:00 | 00:00:00 | |
| ARGUS2 | 2026-09-01 12:46:24 | 27.61403 | -82.64772 | 306° | 58km/h | 28705m | 5.0m/s | -47.4°C | 0% | 0hPa | 0V | 00:00:00 | 00:00:00 | 00:00:00 | |
| ARGUS2 | 2026-09-01 12:45:42 | 27.61336 | -82.64519 | 251° | 46km/h | 28444m | 2.1m/s | -46.9°C | 0% | 0hPa | 0V | 00:00:00 | 00:00:00 | 00:00:00 | |
| ARGUS2 | 2026-09-01 12:45:20 | 27.61240 | -82.64337 | 279° | 69km/h | 28308m | 3.4m/s | -46.6°C | 0% | 0hPa | 0V | 00:00:00 | 00:00:00 | 00:00:00 | |
| ARGUS2 | 2026-09-01 12:44:58 | 27.61153 | -82.64086 | 303° | 55km/h | 28164m | 10.1m/s | -46.7°C | 0% | 0hPa | 0V | 00:00:00 | 00:00:00 | 00:00:00 | |
| ARGUS2 | 2026-09-01 12:44:38 | 27.61110 | -82.63864 | 314° | 69km/h | 28027m | 9.8m/s | -47.2°C | 0% | 0hPa | 0V | 00:00:00 | 00:00:00 | 00:00:00 | |
| ARGUS2 | 2026-09-01 12:44:16 | 27.61080 | -82.63580 | 312° | 55km/h | 27894m | 11.2m/s | -47.8°C | 0% | 0hPa | 0V | 00:00:00 | 00:00:00 | 00:00:00 | |
| ARGUS2 | 2026-09-01 12:43:45 | 27.61101 | -82.63207 | 221° | 46km/h | 27693m | 10.7m/s | -48.3°C | 0% | 0hPa | 0V | 00:00:00 | 00:00:00 | 00:00:00 | |
| ARGUS2 | 2026-09-01 12:43:25 | 27.61195 | -82.62925 | 206° | 57km/h | 27556m | 9.4m/s | -48.5°C | 0% | 0hPa | 0V | 00:00:00 | 00:00:00 | 00:00:00 | |
| ARGUS2 | 2026-09-01 12:43:04 | 27.61288 | -82.62675 | 229° | 80km/h | 27412m | 8.7m/s | -49.1°C | 0% | 0hPa | 0V | 00:00:00 | 00:00:00 | 00:00:00 | |
| ARGUS2 | 2026-09-01 12:42:40 | 27.61364 | -82.62430 | 326° | 27km/h | 27261m | 5.7m/s | -49.8°C | 0% | 0hPa | 0V | 00:00:00 | 00:00:00 | 00:00:00 | |
| ARGUS2 | 2026-09-01 12:42:20 | 27.61448 | -82.62274 | 197° | 9km/h | 27115m | 6.6m/s | -50.0°C | 0% | 0hPa | 0V | 00:00:00 | 00:00:00 | 00:00:00 | |
| ARGUS2 | 2026-09-01 12:41:58 | 27.61564 | -82.62175 | 152° | 16km/h | 26978m | 8.5m/s | -49.5°C | 0% | 0hPa | 0V | 00:00:00 | 00:00:00 | 00:00:00 | |
| ARGUS2 | 2026-09-01 12:41:38 | 27.61667 | -82.62112 | 90° | 15km/h | 26853m | 3.9m/s | -48.9°C | 0% | 0hPa | 0V | 00:00:00 | 00:00:00 | 00:00:00 | |
| ARGUS2 | 2026-09-01 12:41:17 | 27.61761 | -82.62014 | 11° | 2km/h | 26724m | 8.6m/s | -48.8°C | 0% | 0hPa | 0V | 00:00:00 | 00:00:00 | 00:00:00 | |
| ARGUS2 | 2026-09-01 12:40:57 | 27.61816 | -82.61881 | 323° | 44km/h | 26604m | 1.8m/s | -48.6°C | 0% | 0hPa | 0V | 00:00:00 | 00:00:00 | 00:00:00 | |
| ARGUS2 | 2026-09-01 12:40:36 | 27.61806 | -82.61765 | 331° | 53km/h | 26481m | 1.2m/s | -49.5°C | 0% | 0hPa | 0V | 00:00:00 | 00:00:00 | 00:00:00 | |
| ARGUS2 | 2026-09-01 12:40:15 | 27.61793 | -82.61591 | 309° | 68km/h | 26362m | 9.6m/s | -50.0°C | 0% | 0hPa | 0V | 00:00:00 | 00:00:00 | 00:00:00 | |
| ARGUS2 | 2026-09-01 12:39:53 | 27.61704 | -82.61313 | 295° | 77km/h | 26242m | 2.3m/s | -51.1°C | 0% | 0hPa | 0V | 00:00:00 | 00:00:00 | 00:00:00 | |
| ARGUS2 | 2026-09-01 12:39:33 | 27.61636 | -82.61009 | 294° | 82km/h | 26133m | 6.8m/s | -52.5°C | 0% | 0hPa | 0V | 00:00:00 | 00:00:00 | 00:00:00 | |
| ARGUS2 | 2026-09-01 12:39:13 | 27.61573 | -82.60642 | 280° | 46km/h | 26003m | 8.5m/s | -53.0°C | 0% | 0hPa | 0V | 00:00:00 | 00:00:00 | 00:00:00 | |
| ARGUS2 | 2026-09-01 12:38:52 | 27.61563 | -82.60311 | 286° | 53km/h | 25886m | 3.3m/s | -52.8°C | 0% | 0hPa | 0V | 00:00:00 | 00:00:00 | 00:00:00 | |
| ARGUS2 | 2026-09-01 12:38:31 | 27.61593 | -82.59991 | 264° | 24km/h | 25753m | 8.4m/s | -52.5°C | 0% | 0hPa | 0V | 00:00:00 | 00:00:00 | 00:00:00 | |
| ARGUS2 | 2026-09-01 12:38:11 | 27.61638 | -82.59760 | 258° | 20km/h | 25625m | 3.4m/s | -52.6°C | 0% | 0hPa | 0V | 00:00:00 | 00:00:00 | 00:00:00 | |
| ARGUS2 | 2026-09-01 12:37:51 | 27.61714 | -82.59562 | 252° | 37km/h | 25498m | 6.2m/s | -51.9°C | 0% | 0hPa | 0V | 00:00:00 | 00:00:00 | 00:00:00 | |
| ARGUS2 | 2026-09-01 12:37:30 | 27.61784 | -82.59403 | 248° | 40km/h | 25364m | 10.1m/s | -51.4°C | 0% | 0hPa | 0V | 00:00:00 | 00:00:00 | 00:00:00 | |
| ARGUS2 | 2026-09-01 12:37:10 | 27.61829 | -82.59204 | 262° | 55km/h | 25225m | 2.2m/s | -51.8°C | 0% | 0hPa | 0V | 00:00:00 | 00:00:00 | 00:00:00 | |
| ARGUS2 | 2026-09-01 12:36:49 | 27.61834 | -82.58962 | 258° | 77km/h | 25095m | 1.4m/s | -52.2°C | 0% | 0hPa | 0V | 00:00:00 | 00:00:00 | 00:00:00 | |
| ARGUS2 | 2026-09-01 12:36:27 | 27.61867 | -82.58603 | 263° | 60km/h | 24964m | 6.7m/s | -51.7°C | 0% | 0hPa | 0V | 00:00:00 | 00:00:00 | 00:00:00 | |
| ARGUS2 | 2026-09-01 12:36:06 | 27.61913 | -82.58210 | 271° | 77km/h | 24830m | 5.2m/s | -52.3°C | 0% | 0hPa | 0V | 00:00:00 | 00:00:00 | 00:00:00 | |
| ARGUS2 | 2026-09-01 12:35:46 | 27.61993 | -82.57771 | 239° | 64km/h | 24716m | 7.9m/s | -53.0°C | 0% | 0hPa | 0V | 00:00:00 | 00:00:00 | 00:00:00 | |
| ARGUS2 | 2026-09-01 12:35:25 | 27.62059 | -82.57438 | 241° | 68km/h | 24604m | 7.9m/s | -54.2°C | 0% | 0hPa | 0V | 00:00:00 | 00:00:00 | 00:00:00 | |
| ARGUS2 | 2026-09-01 12:35:05 | 27.62147 | -82.57160 | 218° | 69km/h | 24485m | 2.2m/s | -54.3°C | 0% | 0hPa | 0V | 00:00:00 | 00:00:00 | 00:00:00 | |
| ARGUS2 | 2026-09-01 12:34:44 | 27.62288 | -82.56895 | 213° | 57km/h | 24364m | 4.5m/s | -54.7°C | 0% | 0hPa | 0V | 00:00:00 | 00:00:00 | 00:00:00 | |
| ARGUS2 | 2026-09-01 12:34:24 | 27.62417 | -82.56703 | 271° | 55km/h | 24238m | 4.8m/s | -54.5°C | 0% | 0hPa | 0V | 00:00:00 | 00:00:00 | 00:00:00 | |
| ARGUS2 | 2026-09-01 12:34:03 | 27.62488 | -82.56567 | 259° | 35km/h | 24113m | 1.4m/s | -54.6°C | 0% | 0hPa | 0V | 00:00:00 | 00:00:00 | 00:00:00 | |
| ARGUS2 | 2026-09-01 12:33:43 | 27.62516 | -82.56466 | 292° | 55km/h | 23990m | 4.9m/s | -54.8°C | 0% | 0hPa | 0V | 00:00:00 | 00:00:00 | 00:00:00 | |
| ARGUS2 | 2026-09-01 12:33:21 | 27.62511 | -82.56327 | 267° | 20km/h | 23863m | 8.9m/s | -54.1°C | 0% | 0hPa | 0V | 00:00:00 | 00:00:00 | 00:00:00 | |
| ARGUS2 | 2026-09-01 12:33:01 | 27.62547 | -82.56174 | 230° | 27km/h | 23748m | 8.8m/s | -54.3°C | 0% | 0hPa | 0V | 00:00:00 | 00:00:00 | 00:00:00 | |
| ARGUS2 | 2026-09-01 12:32:41 | 27.62614 | -82.56023 | 258° | 11km/h | 23624m | 8.1m/s | -54.1°C | 0% | 0hPa | 0V | 00:00:00 | 00:00:00 | 00:00:00 | |
| ARGUS2 | 2026-09-01 12:32:21 | 27.62631 | -82.55878 | 299° | 18km/h | 23499m | 6.8m/s | -53.8°C | 0% | 0hPa | 0V | 00:00:00 | 00:00:00 | 00:00:00 | |
| ARGUS2 | 2026-09-01 12:31:59 | 27.62583 | -82.55713 | 322° | 29km/h | 23365m | 7.6m/s | -53.9°C | 0% | 0hPa | 0V | 00:00:00 | 00:00:00 | 00:00:00 | |
| ARGUS2 | 2026-09-01 12:31:39 | 27.62481 | -82.55568 | 295° | 44km/h | 23248m | 6.8m/s | -54.2°C | 0% | 0hPa | 0V | 00:00:00 | 00:00:00 | 00:00:00 | |
| ARGUS2 | 2026-09-01 12:30:58 | 27.62268 | -82.55222 | 279° | 38km/h | 23011m | 4.8m/s | -53.4°C | 0% | 0hPa | 0V | 00:00:00 | 00:00:00 | 00:00:00 | |
| ARGUS2 | 2026-09-01 12:30:38 | 27.62203 | -82.54993 | 281° | 20km/h | 22903m | 5.1m/s | -53.6°C | 0% | 0hPa | 0V | 00:00:00 | 00:00:00 | 00:00:00 | |
| ARGUS2 | 2026-09-01 12:30:19 | 27.62107 | -82.54756 | 312° | 58km/h | 22790m | 8.4m/s | -53.8°C | 0% | 0hPa | 0V | 00:00:00 | 00:00:00 | 00:00:00 | |
| ARGUS2 | 2026-09-01 12:29:57 | 27.61992 | -82.54497 | 282° | 27km/h | 22673m | 6.0m/s | -54.2°C | 0% | 0hPa | 0V | 00:00:00 | 00:00:00 | 00:00:00 | |
| ARGUS2 | 2026-09-01 12:29:36 | 27.61901 | -82.54276 | 305° | 49km/h | 22561m | 10.2m/s | -55.6°C | 0% | 0hPa | 0V | 00:00:00 | 00:00:00 | 00:00:00 | |
| ARGUS2 | 2026-09-01 12:29:16 | 27.61795 | -82.54030 | 297° | 73km/h | 22445m | 3.3m/s | -56.0°C | 0% | 0hPa | 0V | 00:00:00 | 00:00:00 | 00:00:00 | |
| ARGUS2 | 2026-09-01 12:28:54 | 27.61659 | -82.53739 | 286° | 46km/h | 22319m | 5.4m/s | -56.0°C | 0% | 0hPa | 0V | 00:00:00 | 00:00:00 | 00:00:00 | |
| ARGUS2 | 2026-09-01 12:28:34 | 27.61555 | -82.53442 | 286° | 51km/h | 22189m | 6.9m/s | -55.9°C | 0% | 0hPa | 0V | 00:00:00 | 00:00:00 | 00:00:00 | |
| ARGUS2 | 2026-09-01 12:28:13 | 27.61454 | -82.53110 | 297° | 68km/h | 22071m | 5.6m/s | -56.0°C | 0% | 0hPa | 0V | 00:00:00 | 00:00:00 | 00:00:00 | |
| ARGUS2 | 2026-09-01 12:27:53 | 27.61408 | -82.52776 | 269° | 62km/h | 21947m | 3.6m/s | -56.3°C | 0% | 0hPa | 0V | 00:00:00 | 00:00:00 | 00:00:00 | |
| ARGUS2 | 2026-09-01 12:27:33 | 27.61384 | -82.52449 | 292° | 51km/h | 21825m | 7.3m/s | -57.3°C | 0% | 0hPa | 0V | 00:00:00 | 00:00:00 | 00:00:00 | |
| ARGUS2 | 2026-09-01 12:27:13 | 27.61357 | -82.52097 | 255° | 84km/h | 21718m | 1.7m/s | -57.8°C | 0% | 0hPa | 0V | 00:00:00 | 00:00:00 | 00:00:00 | |
| ARGUS2 | 2026-09-01 12:26:51 | 27.61382 | -82.51725 | 265° | 51km/h | 21600m | 4.2m/s | -58.6°C | 0% | 0hPa | 0V | 00:00:00 | 00:00:00 | 00:00:00 | |
| ARGUS2 | 2026-09-01 12:26:30 | 27.61393 | -82.51414 | 257° | 58km/h | 21494m | 0.7m/s | -59.1°C | 0% | 0hPa | 0V | 00:00:00 | 00:00:00 | 00:00:00 | |
| ARGUS2 | 2026-09-01 12:26:09 | 27.61356 | -82.51119 | 273° | 57km/h | 21397m | 6.8m/s | -60.0°C | 0% | 0hPa | 0V | 00:00:00 | 00:00:00 | 00:00:00 | |
| ARGUS2 | 2026-09-01 12:25:49 | 27.61394 | -82.50836 | 254° | 58km/h | 21293m | 6.6m/s | -60.8°C | 0% | 0hPa | 0V | 00:00:00 | 00:00:00 | 00:00:00 | |
| ARGUS2 | 2026-09-01 12:25:28 | 27.61437 | -82.50591 | 230° | 40km/h | 21184m | 5.9m/s | -62.2°C | 0% | 0hPa | 0V | 00:00:00 | 00:00:00 | 00:00:00 | |
| ARGUS2 | 2026-09-01 12:25:08 | 27.61445 | -82.50399 | 266° | 33km/h | 21083m | 4.9m/s | -62.8°C | 0% | 0hPa | 0V | 00:00:00 | 00:00:00 | 00:00:00 | |
| ARGUS2 | 2026-09-01 12:24:47 | 27.61436 | -82.50168 | 251° | 37km/h | 20967m | 3.2m/s | -63.3°C | 0% | 0hPa | 0V | 00:00:00 | 00:00:00 | 00:00:00 | |
| ARGUS2 | 2026-09-01 12:24:26 | 27.61435 | -82.49943 | 260° | 51km/h | 20857m | 7.2m/s | -63.0°C | 0% | 0hPa | 0V | 00:00:00 | 00:00:00 | 00:00:00 | |
| ARGUS2 | 2026-09-01 12:24:06 | 27.61479 | -82.49714 | 282° | 27km/h | 20731m | 6.9m/s | -62.9°C | 0% | 0hPa | 0V | 00:00:00 | 00:00:00 | 00:00:00 | |
| ARGUS2 | 2026-09-01 12:23:46 | 27.61481 | -82.49541 | 267° | 29km/h | 20604m | 7.5m/s | -62.5°C | 0% | 0hPa | 0V | 00:00:00 | 00:00:00 | 00:00:00 | |
| ARGUS2 | 2026-09-01 12:23:25 | 27.61483 | -82.49450 | 342° | 27km/h | 20477m | 5.9m/s | -62.8°C | 0% | 0hPa | 0V | 00:00:00 | 00:00:00 | 00:00:00 | |
| ARGUS2 | 2026-09-01 12:23:05 | 27.61431 | -82.49340 | 266° | 18km/h | 20351m | 4.7m/s | -62.7°C | 0% | 0hPa | 0V | 00:00:00 | 00:00:00 | 00:00:00 | |
| ARGUS2 | 2026-09-01 12:22:44 | 27.61358 | -82.49168 | 305° | 57km/h | 20232m | 4.0m/s | -62.6°C | 0% | 0hPa | 0V | 00:00:00 | 00:00:00 | 00:00:00 | |
| ARGUS2 | 2026-09-01 12:22:24 | 27.61311 | -82.48933 | 265° | 51km/h | 20118m | 5.0m/s | -62.6°C | 0% | 0hPa | 0V | 00:00:00 | 00:00:00 | 00:00:00 | |
| ARGUS2 | 2026-09-01 12:22:03 | 27.61285 | -82.48652 | 267° | 44km/h | 20001m | 6.9m/s | -63.1°C | 0% | 0hPa | 0V | 00:00:00 | 00:00:00 | 00:00:00 | |
| ARGUS2 | 2026-09-01 12:21:42 | 27.61298 | -82.48408 | 287° | 46km/h | 19891m | 3.3m/s | -63.0°C | 0% | 0hPa | 0V | 00:00:00 | 00:00:00 | 00:00:00 | |
| ARGUS2 | 2026-09-01 12:21:21 | 27.61312 | -82.48206 | 276° | 29km/h | 19782m | 6.9m/s | -63.7°C | 0% | 0hPa | 0V | 00:00:00 | 00:00:00 | 00:00:00 | |
| ARGUS2 | 2026-09-01 12:21:01 | 27.61317 | -82.47996 | 237° | 51km/h | 19671m | 6.8m/s | -63.7°C | 0% | 0hPa | 0V | 00:00:00 | 00:00:00 | 00:00:00 | |
| ARGUS2 | 2026-09-01 12:20:41 | 27.61361 | -82.47757 | 250° | 42km/h | 19564m | 5.9m/s | -64.2°C | 0% | 0hPa | 0V | 00:00:00 | 00:00:00 | 00:00:00 | |
| ARGUS2 | 2026-09-01 12:20:19 | 27.61418 | -82.47475 | 249° | 51km/h | 19451m | 6.4m/s | -63.8°C | 0% | 0hPa | 0V | 00:00:00 | 00:00:00 | 00:00:00 | |
| ARGUS2 | 2026-09-01 12:19:59 | 27.61530 | -82.47208 | 251° | 47km/h | 19341m | 6.9m/s | -63.7°C | 0% | 0hPa | 0V | 00:00:00 | 00:00:00 | 00:00:00 | |
| ARGUS2 | 2026-09-01 12:19:39 | 27.61638 | -82.46955 | 266° | 51km/h | 19235m | 7.0m/s | -63.9°C | 0% | 0hPa | 0V | 00:00:00 | 00:00:00 | 00:00:00 | |
| ARGUS2 | 2026-09-01 12:19:19 | 27.61736 | -82.46737 | 248° | 49km/h | 19123m | 6.6m/s | -64.2°C | 0% | 0hPa | 0V | 00:00:00 | 00:00:00 | 00:00:00 | |
| ARGUS2 | 2026-09-01 12:18:58 | 27.61834 | -82.46564 | 233° | 55km/h | 19008m | 3.1m/s | -64.3°C | 0% | 0hPa | 0V | 00:00:00 | 00:00:00 | 00:00:00 | |
| ARGUS2 | 2026-09-01 12:18:37 | 27.61881 | -82.46403 | 264° | 29km/h | 18902m | 4.4m/s | -64.7°C | 0% | 0hPa | 0V | 00:00:00 | 00:00:00 | 00:00:00 | |
| ARGUS2 | 2026-09-01 12:18:17 | 27.61908 | -82.46201 | 265° | 38km/h | 18804m | 6.6m/s | -64.4°C | 0% | 0hPa | 0V | 00:00:00 | 00:00:00 | 00:00:00 | |
| ARGUS2 | 2026-09-01 12:17:56 | 27.61938 | -82.45962 | 257° | 51km/h | 18706m | 6.4m/s | -64.2°C | 0% | 0hPa | 0V | 00:00:00 | 00:00:00 | 00:00:00 | |
| ARGUS2 | 2026-09-01 12:17:36 | 27.62043 | -82.45737 | 233° | 46km/h | 18599m | 6.4m/s | -64.9°C | 0% | 0hPa | 0V | 00:00:00 | 00:00:00 | 00:00:00 | |
| ARGUS2 | 2026-09-01 12:17:17 | 27.62200 | -82.45599 | 212° | 40km/h | 18499m | 6.9m/s | -65.9°C | 0% | 0hPa | 0V | 00:00:00 | 00:00:00 | 00:00:00 | |
| ARGUS2 | 2026-09-01 12:16:55 | 27.62349 | -82.45546 | 186° | 27km/h | 18393m | 5.8m/s | -65.8°C | 0% | 0hPa | 0V | 00:00:00 | 00:00:00 | 00:00:00 | |
| ARGUS2 | 2026-09-01 12:16:33 | 27.62463 | -82.45536 | 196° | 20km/h | 18291m | 5.0m/s | -66.6°C | 0% | 0hPa | 0V | 00:00:00 | 00:00:00 | 00:00:00 | |
| ARGUS2 | 2026-09-01 12:16:14 | 27.62501 | -82.45482 | 199° | 13km/h | 18187m | 6.3m/s | -66.3°C | 0% | 0hPa | 0V | 00:00:00 | 00:00:00 | 00:00:00 | |
| ARGUS2 | 2026-09-01 12:15:52 | 27.62512 | -82.45398 | 275° | 20km/h | 18085m | 7.2m/s | -65.8°C | 0% | 0hPa | 0V | 00:00:00 | 00:00:00 | 00:00:00 | |
| ARGUS2 | 2026-09-01 12:15:33 | 27.62498 | -82.45303 | 248° | 13km/h | 17979m | 4.8m/s | -67.1°C | 0% | 0hPa | 0V | 00:00:00 | 00:00:00 | 00:00:00 | |
| ARGUS2 | 2026-09-01 12:15:11 | 27.62539 | -82.45187 | 249° | 24km/h | 17864m | 6.5m/s | -66.9°C | 0% | 0hPa | 0V | 00:00:00 | 00:00:00 | 00:00:00 | |
| ARGUS2 | 2026-09-01 12:14:51 | 27.62614 | -82.45023 | 226° | 22km/h | 17756m | 6.5m/s | -67.3°C | 0% | 0hPa | 0V | 00:00:00 | 00:00:00 | 00:00:00 | |
| ARGUS2 | 2026-09-01 12:14:30 | 27.62700 | -82.44866 | 228° | 33km/h | 17640m | 3.6m/s | -67.6°C | 0% | 0hPa | 0V | 00:00:00 | 00:00:00 | 00:00:00 | |
| ARGUS2 | 2026-09-01 12:14:10 | 27.62808 | -82.44759 | 214° | 27km/h | 17530m | 6.6m/s | -68.1°C | 0% | 0hPa | 0V | 00:00:00 | 00:00:00 | 00:00:00 | |
| ARGUS2 | 2026-09-01 12:13:50 | 27.62945 | -82.44700 | 220° | 18km/h | 17423m | 2.9m/s | -67.5°C | 0% | 0hPa | 0V | 00:00:00 | 00:00:00 | 00:00:00 | |
| ARGUS2 | 2026-09-01 12:13:29 | 27.63075 | -82.44639 | 226° | 22km/h | 17316m | 5.7m/s | -66.9°C | 0% | 0hPa | 0V | 00:00:00 | 00:00:00 | 00:00:00 | |
| ARGUS2 | 2026-09-01 12:13:09 | 27.63217 | -82.44556 | 231° | 22km/h | 17208m | 5.0m/s | -66.6°C | 0% | 0hPa | 0V | 00:00:00 | 00:00:00 | 00:00:00 | |
| ARGUS2 | 2026-09-01 12:12:49 | 27.63371 | -82.44460 | 201° | 42km/h | 17115m | 5.1m/s | -66.3°C | 0% | 0hPa | 0V | 00:00:00 | 00:00:00 | 00:00:00 | |
| ARGUS2 | 2026-09-01 12:12:28 | 27.63526 | -82.44348 | 227° | 29km/h | 17012m | 6.1m/s | -67.0°C | 0% | 0hPa | 0V | 00:00:00 | 00:00:00 | 00:00:00 | |
| ARGUS2 | 2026-09-01 12:12:07 | 27.63638 | -82.44259 | 222° | 31km/h | 16912m | 5.1m/s | -67.3°C | 0% | 0hPa | 0V | 00:00:00 | 00:00:00 | 00:00:00 | |
| ARGUS2 | 2026-09-01 12:11:47 | 27.63762 | -82.44168 | 209° | 24km/h | 16809m | 5.2m/s | -67.4°C | 0% | 0hPa | 0V | 00:00:00 | 00:00:00 | 00:00:00 | |
| ARGUS2 | 2026-09-01 12:11:25 | 27.63870 | -82.44095 | 212° | 35km/h | 16707m | 4.2m/s | -67.2°C | 0% | 0hPa | 0V | 00:00:00 | 00:00:00 | 00:00:00 | |
| ARGUS2 | 2026-09-01 12:11:05 | 27.63945 | -82.44074 | 179° | 16km/h | 16609m | 5.4m/s | -67.5°C | 0% | 0hPa | 0V | 00:00:00 | 00:00:00 | 00:00:00 | |
| ARGUS2 | 2026-09-01 12:10:44 | 27.64010 | -82.44032 | 230° | 24km/h | 16500m | 4.4m/s | -68.2°C | 0% | 0hPa | 0V | 00:00:00 | 00:00:00 | 00:00:00 | |
| ARGUS2 | 2026-09-01 12:10:24 | 27.64045 | -82.43960 | 239° | 26km/h | 16397m | 5.6m/s | -68.1°C | 0% | 0hPa | 0V | 00:00:00 | 00:00:00 | 00:00:00 | |
| ARGUS2 | 2026-09-01 12:10:03 | 27.64087 | -82.43847 | 233° | 22km/h | 16290m | 5.8m/s | -68.3°C | 0% | 0hPa | 0V | 00:00:00 | 00:00:00 | 00:00:00 | |
| ARGUS2 | 2026-09-01 12:09:43 | 27.64147 | -82.43758 | 243° | 29km/h | 16188m | 4.6m/s | -68.6°C | 0% | 0hPa | 0V | 00:00:00 | 00:00:00 | 00:00:00 | |
| ARGUS2 | 2026-09-01 12:09:22 | 27.64249 | -82.43671 | 205° | 26km/h | 16079m | 4.9m/s | -68.0°C | 0% | 0hPa | 0V | 00:00:00 | 00:00:00 | 00:00:00 | |
| ARGUS2 | 2026-09-01 12:09:02 | 27.64385 | -82.43603 | 188° | 31km/h | 15979m | 5.8m/s | -67.3°C | 0% | 0hPa | 0V | 00:00:00 | 00:00:00 | 00:00:00 | |
| ARGUS2 | 2026-09-01 12:08:42 | 27.64564 | -82.43542 | 194° | 42km/h | 15878m | 5.7m/s | -67.0°C | 0% | 0hPa | 0V | 00:00:00 | 00:00:00 | 00:00:00 | |
| ARGUS2 | 2026-09-01 12:08:21 | 27.64718 | -82.43485 | 220° | 22km/h | 15780m | 5.1m/s | -67.1°C | 0% | 0hPa | 0V | 00:00:00 | 00:00:00 | 00:00:00 | |
| ARGUS2 | 2026-09-01 12:08:01 | 27.64874 | -82.43461 | 190° | 35km/h | 15682m | 4.8m/s | -67.2°C | 0% | 0hPa | 0V | 00:00:00 | 00:00:00 | 00:00:00 | |
| ARGUS2 | 2026-09-01 12:07:40 | 27.65042 | -82.43475 | 161° | 37km/h | 15591m | 5.5m/s | -67.7°C | 0% | 0hPa | 0V | 00:00:00 | 00:00:00 | 00:00:00 | |
| ARGUS2 | 2026-09-01 12:07:20 | 27.65212 | -82.43468 | 173° | 18km/h | 15494m | 4.0m/s | -68.6°C | 0% | 0hPa | 0V | 00:00:00 | 00:00:00 | 00:00:00 | |
| ARGUS2 | 2026-09-01 12:07:00 | 27.65383 | -82.43439 | 188° | 35km/h | 15399m | 5.5m/s | -69.0°C | 0% | 0hPa | 0V | 00:00:00 | 00:00:00 | 00:00:00 | |
| ARGUS2 | 2026-09-01 12:06:39 | 27.65554 | -82.43411 | 197° | 38km/h | 15296m | 5.7m/s | -68.3°C | 0% | 0hPa | 0V | 00:00:00 | 00:00:00 | 00:00:00 | |
| ARGUS2 | 2026-09-01 12:06:18 | 27.65687 | -82.43365 | 191° | 31km/h | 15185m | 2.6m/s | -69.1°C | 0% | 0hPa | 0V | 00:00:00 | 00:00:00 | 00:00:00 | |
| ARGUS2 | 2026-09-01 12:05:57 | 27.65727 | -82.43376 | 195° | 4km/h | 15087m | 6.4m/s | -70.2°C | 0% | 0hPa | 0V | 00:00:00 | 00:00:00 | 00:00:00 | |
| ARGUS2 | 2026-09-01 12:05:36 | 27.65730 | -82.43363 | 273° | 11km/h | 14980m | 4.5m/s | -70.9°C | 0% | 0hPa | 0V | 00:00:00 | 00:00:00 | 00:00:00 | |
| ARGUS2 | 2026-09-01 12:05:16 | 27.65725 | -82.43310 | 287° | 18km/h | 14886m | 3.5m/s | -70.5°C | 0% | 0hPa | 0V | 00:00:00 | 00:00:00 | 00:00:00 | |
| ARGUS2 | 2026-09-01 12:04:55 | 27.65712 | -82.43246 | 315° | 24km/h | 14785m | 5.1m/s | -69.8°C | 0% | 0hPa | 0V | 00:00:00 | 00:00:00 | 00:00:00 | |
| ARGUS2 | 2026-09-01 12:04:35 | 27.65700 | -82.43178 | 239° | 22km/h | 14689m | 4.1m/s | -69.3°C | 0% | 0hPa | 0V | 00:00:00 | 00:00:00 | 00:00:00 | |
| ARGUS2 | 2026-09-01 12:04:15 | 27.65704 | -82.43135 | 144° | 15km/h | 14544m | 2.9m/s | -68.0°C | 0% | 0hPa | 0V | 00:00:00 | 00:00:00 | 00:00:00 | |
| ARGUS2 | 2026-09-01 12:03:54 | 27.65748 | -82.43114 | 168° | 35km/h | 14420m | 5.5m/s | -67.2°C | 0% | 0hPa | 0V | 00:00:00 | 00:00:00 | 00:00:00 | |
| ARGUS2 | 2026-09-01 12:03:34 | 27.65829 | -82.43125 | 159° | 16km/h | 14300m | 5.0m/s | -66.5°C | 0% | 0hPa | 0V | 00:00:00 | 00:00:00 | 00:00:00 | |
| ARGUS2 | 2026-09-01 12:03:13 | 27.65915 | -82.43159 | 114° | 9km/h | 14199m | 3.6m/s | -65.9°C | 0% | 0hPa | 0V | 00:00:00 | 00:00:00 | 00:00:00 | |
| ARGUS2 | 2026-09-01 12:02:53 | 27.66003 | -82.43176 | 173° | 35km/h | 14093m | 6.6m/s | -65.2°C | 0% | 0hPa | 0V | 00:00:00 | 00:00:00 | 00:00:00 | |
| ARGUS2 | 2026-09-01 12:02:32 | 27.66106 | -82.43219 | 164° | 29km/h | 13987m | 5.9m/s | -64.3°C | 0% | 0hPa | 0V | 00:00:00 | 00:00:00 | 00:00:00 | |
| ARGUS2 | 2026-09-01 12:02:12 | 27.66224 | -82.43263 | 194° | 24km/h | 13875m | 2.9m/s | -63.4°C | 0% | 0hPa | 0V | 00:00:00 | 00:00:00 | 00:00:00 | |
| ARGUS2 | 2026-09-01 12:01:51 | 27.66332 | -82.43304 | 172° | 22km/h | 13771m | 5.1m/s | -62.4°C | 0% | 0hPa | 0V | 00:00:00 | 00:00:00 | 00:00:00 | |
| ARGUS2 | 2026-09-01 12:01:31 | 27.66451 | -82.43341 | 145° | 27km/h | 13661m | 2.9m/s | -61.6°C | 0% | 0hPa | 0V | 00:00:00 | 00:00:00 | 00:00:00 | |
| ARGUS2 | 2026-09-01 12:01:10 | 27.66562 | -82.43362 | 164° | 27km/h | 13554m | 4.1m/s | -60.8°C | 0% | 0hPa | 0V | 00:00:00 | 00:00:00 | 00:00:00 | |
| ARGUS2 | 2026-09-01 12:00:49 | 27.66672 | -82.43362 | 155° | 27km/h | 13453m | 3.8m/s | -59.9°C | 0% | 0hPa | 0V | 00:00:00 | 00:00:00 | 00:00:00 | |
| ARGUS2 | 2026-09-01 12:00:28 | 27.66806 | -82.43362 | 132° | 15km/h | 13351m | 6.2m/s | -59.1°C | 0% | 0hPa | 0V | 00:00:00 | 00:00:00 | 00:00:00 | |
| ARGUS2 | 2026-09-01 12:00:08 | 27.66932 | -82.43371 | 185° | 44km/h | 13251m | 3.4m/s | -58.2°C | 0% | 0hPa | 0V | 00:00:00 | 00:00:00 | 00:00:00 | |
| ARGUS2 | 2026-09-01 11:59:48 | 27.67066 | -82.43397 | 159° | 27km/h | 13148m | 4.6m/s | -57.4°C | 0% | 0hPa | 0V | 00:00:00 | 00:00:00 | 00:00:00 | |
| ARGUS2 | 2026-09-01 11:59:28 | 27.67177 | -82.43405 | 159° | 42km/h | 13043m | 4.9m/s | -56.5°C | 0% | 0hPa | 0V | 00:00:00 | 00:00:00 | 00:00:00 | |
| ARGUS2 | 2026-09-01 11:59:07 | 27.67294 | -82.43396 | 167° | 26km/h | 12937m | 4.7m/s | -55.6°C | 0% | 0hPa | 0V | 00:00:00 | 00:00:00 | 00:00:00 | |
| ARGUS2 | 2026-09-01 11:58:46 | 27.67401 | -82.43403 | 166° | 22km/h | 12842m | 5.6m/s | -54.9°C | 0% | 0hPa | 0V | 00:00:00 | 00:00:00 | 00:00:00 | |
| ARGUS2 | 2026-09-01 11:58:26 | 27.67495 | -82.43398 | 175° | 40km/h | 12732m | 4.3m/s | -54.1°C | 0% | 0hPa | 0V | 00:00:00 | 00:00:00 | 00:00:00 | |
| ARGUS2 | 2026-09-01 11:58:06 | 27.67560 | -82.43394 | 224° | 13km/h | 12630m | 4.2m/s | -53.2°C | 0% | 0hPa | 0V | 00:00:00 | 00:00:00 | 00:00:00 | |
| ARGUS2 | 2026-09-01 11:57:46 | 27.67625 | -82.43402 | 132° | 7km/h | 12527m | 5.9m/s | -52.3°C | 0% | 0hPa | 0V | 00:00:00 | 00:00:00 | 00:00:00 | |
| ARGUS2 | 2026-09-01 11:57:25 | 27.67683 | -82.43409 | 132° | 18km/h | 12425m | 3.8m/s | -51.4°C | 0% | 0hPa | 0V | 00:00:00 | 00:00:00 | 00:00:00 | |
| ARGUS2 | 2026-09-01 11:57:04 | 27.67727 | -82.43425 | 341° | 16km/h | 12308m | 3.8m/s | -50.4°C | 0% | 0hPa | 0V | 00:00:00 | 00:00:00 | 00:00:00 | |
| ARGUS2 | 2026-09-01 11:56:44 | 27.67757 | -82.43433 | 285° | 13km/h | 12206m | 6.0m/s | -49.7°C | 0% | 0hPa | 0V | 00:00:00 | 00:00:00 | 00:00:00 | |
| ARGUS2 | 2026-09-01 11:56:01 | 27.67734 | -82.43499 | 79° | 7km/h | 12004m | 5.7m/s | -48.1°C | 0% | 0hPa | 0V | 00:00:00 | 00:00:00 | 00:00:00 | |
| ARGUS2 | 2026-09-01 11:55:41 | 27.67720 | -82.43559 | 86° | 15km/h | 11913m | 3.8m/s | -47.5°C | 0% | 0hPa | 0V | 00:00:00 | 00:00:00 | 00:00:00 | |
| ARGUS2 | 2026-09-01 11:55:21 | 27.67692 | -82.43600 | 2° | 15km/h | 11818m | 3.9m/s | -46.9°C | 0% | 0hPa | 0V | 00:00:00 | 00:00:00 | 00:00:00 | |
| ARGUS2 | 2026-09-01 11:55:01 | 27.67654 | -82.43638 | 35° | 24km/h | 11731m | 4.6m/s | -46.3°C | 0% | 0hPa | 0V | 00:00:00 | 00:00:00 | 00:00:00 | |
| ARGUS2 | 2026-09-01 11:54:40 | 27.67587 | -82.43664 | 2° | 22km/h | 11640m | 3.8m/s | -45.5°C | 0% | 0hPa | 0V | 00:00:00 | 00:00:00 | 00:00:00 | |
| ARGUS2 | 2026-09-01 11:54:19 | 27.67519 | -82.43687 | 28° | 16km/h | 11550m | 4.6m/s | -44.7°C | 0% | 0hPa | 0V | 00:00:00 | 00:00:00 | 00:00:00 | |
| ARGUS2 | 2026-09-01 11:53:59 | 27.67473 | -82.43716 | 356° | 4km/h | 11455m | 4.9m/s | -44.2°C | 0% | 0hPa | 0V | 00:00:00 | 00:00:00 | 00:00:00 | |
| ARGUS2 | 2026-09-01 11:53:39 | 27.67438 | -82.43712 | 56° | 9km/h | 11368m | 3.9m/s | -43.7°C | 0% | 0hPa | 0V | 00:00:00 | 00:00:00 | 00:00:00 | |
| ARGUS2 | 2026-09-01 11:53:18 | 27.67410 | -82.43698 | 22° | 15km/h | 11273m | 2.9m/s | -42.9°C | 0% | 0hPa | 0V | 00:00:00 | 00:00:00 | 00:00:00 | |
| ARGUS2 | 2026-09-01 11:52:57 | 27.67388 | -82.43700 | 265° | 4km/h | 11169m | 6.4m/s | -42.1°C | 0% | 0hPa | 0V | 00:00:00 | 00:00:00 | 00:00:00 | |
| ARGUS2 | 2026-09-01 11:52:36 | 27.67402 | -82.43719 | 128° | 13km/h | 11067m | 4.2m/s | -41.3°C | 0% | 0hPa | 0V | 00:00:00 | 00:00:00 | 00:00:00 | |
| ARGUS2 | 2026-09-01 11:52:16 | 27.67432 | -82.43737 | 124° | 13km/h | 10974m | 4.5m/s | -40.4°C | 0% | 0hPa | 0V | 00:00:00 | 00:00:00 | 00:00:00 | |
| ARGUS2 | 2026-09-01 11:51:56 | 27.67454 | -82.43744 | 254° | 9km/h | 10872m | 5.5m/s | -39.6°C | 0% | 0hPa | 0V | 00:00:00 | 00:00:00 | 00:00:00 | |
| ARGUS2 | 2026-09-01 11:51:35 | 27.67501 | -82.43760 | 119° | 13km/h | 10759m | 5.0m/s | -38.7°C | 0% | 0hPa | 0V | 00:00:00 | 00:00:00 | 00:00:00 | |
| ARGUS2 | 2026-09-01 11:51:13 | 27.67561 | -82.43790 | 181° | 15km/h | 10648m | 4.0m/s | -37.9°C | 0% | 0hPa | 0V | 00:00:00 | 00:00:00 | 00:00:00 | |
| ARGUS2 | 2026-09-01 11:50:52 | 27.67601 | -82.43806 | 157° | 11km/h | 10545m | 4.8m/s | -37.2°C | 0% | 0hPa | 0V | 00:00:00 | 00:00:00 | 00:00:00 | |
| ARGUS2 | 2026-09-01 11:50:30 | 27.67637 | -82.43842 | 115° | 13km/h | 10434m | 5.3m/s | -36.4°C | 0% | 0hPa | 0V | 00:00:00 | 00:00:00 | 00:00:00 | |
| ARGUS2 | 2026-09-01 11:50:10 | 27.67686 | -82.43906 | 151° | 26km/h | 10336m | 4.6m/s | -35.6°C | 0% | 0hPa | 0V | 00:00:00 | 00:00:00 | 00:00:00 | |
| ARGUS2 | 2026-09-01 11:49:47 | 27.67749 | -82.43991 | 119° | 20km/h | 10225m | 4.0m/s | -34.8°C | 0% | 0hPa | 0V | 00:00:00 | 00:00:00 | 00:00:00 | |
| ARGUS2 | 2026-09-01 11:49:26 | 27.67806 | -82.44080 | 116° | 29km/h | 10126m | 4.2m/s | -34.0°C | 0% | 0hPa | 0V | 00:00:00 | 00:00:00 | 00:00:00 | |
| ARGUS2 | 2026-09-01 11:49:06 | 27.67873 | -82.44170 | 141° | 16km/h | 10028m | 4.5m/s | -33.2°C | 0% | 0hPa | 0V | 00:00:00 | 00:00:00 | 00:00:00 | |
| ARGUS2 | 2026-09-01 11:48:44 | 27.67921 | -82.44252 | 113° | 15km/h | 9930m | 5.3m/s | -32.3°C | 0% | 0hPa | 0V | 00:00:00 | 00:00:00 | 00:00:00 | |
| ARGUS2 | 2026-09-01 11:48:24 | 27.67956 | -82.44322 | 105° | 13km/h | 9832m | 3.9m/s | -31.6°C | 0% | 0hPa | 0V | 00:00:00 | 00:00:00 | 00:00:00 | |
| ARGUS2 | 2026-09-01 11:48:03 | 27.68000 | -82.44395 | 138° | 35km/h | 9735m | 2.3m/s | -30.9°C | 0% | 0hPa | 0V | 00:00:00 | 00:00:00 | 00:00:00 | |
| ARGUS2 | 2026-09-01 11:47:42 | 27.68064 | -82.44435 | 119° | 24km/h | 9629m | 5.1m/s | -30.2°C | 0% | 0hPa | 0V | 00:00:00 | 00:00:00 | 00:00:00 | |
| ARGUS2 | 2026-09-01 11:47:22 | 27.68103 | -82.44466 | 6° | 4km/h | 9538m | 6.3m/s | -29.3°C | 0% | 0hPa | 0V | 00:00:00 | 00:00:00 | 00:00:00 | |
| ARGUS2 | 2026-09-01 11:47:01 | 27.68112 | -82.44511 | 167° | 9km/h | 9420m | 5.7m/s | -28.2°C | 0% | 0hPa | 0V | 00:00:00 | 00:00:00 | 00:00:00 | |
| ARGUS2 | 2026-09-01 11:46:40 | 27.68136 | -82.44554 | 95° | 4km/h | 9328m | 5.3m/s | -27.5°C | 0% | 0hPa | 0V | 00:00:00 | 00:00:00 | 00:00:00 | |
| ARGUS2 | 2026-09-01 11:46:20 | 27.68147 | -82.44600 | 54° | 5km/h | 9231m | 4.5m/s | -27.0°C | 0% | 0hPa | 0V | 00:00:00 | 00:00:00 | 00:00:00 | |
| ARGUS2 | 2026-09-01 11:46:00 | 27.68140 | -82.44636 | 304° | 4km/h | 9144m | 5.3m/s | -26.4°C | 0% | 0hPa | 0V | 00:00:00 | 00:00:00 | 00:00:00 | |
| ARGUS2 | 2026-09-01 11:45:39 | 27.68128 | -82.44648 | 330° | 9km/h | 9049m | 5.6m/s | -25.7°C | 0% | 0hPa | 0V | 00:00:00 | 00:00:00 | 00:00:00 | |
| ARGUS2 | 2026-09-01 11:45:19 | 27.68115 | -82.44656 | 28° | 9km/h | 8955m | 3.9m/s | -24.8°C | 0% | 0hPa | 0V | 00:00:00 | 00:00:00 | 00:00:00 | |
| ARGUS2 | 2026-09-01 11:44:57 | 27.68105 | -82.44678 | 121° | 9km/h | 8865m | 4.5m/s | -24.0°C | 0% | 0hPa | 0V | 00:00:00 | 00:00:00 | 00:00:00 | |
| ARGUS2 | 2026-09-01 11:44:37 | 27.68101 | -82.44701 | 50° | 9km/h | 8772m | 4.8m/s | -23.5°C | 0% | 0hPa | 0V | 00:00:00 | 00:00:00 | 00:00:00 | |
| ARGUS2 | 2026-09-01 11:44:16 | 27.68108 | -82.44728 | 75° | 16km/h | 8681m | 3.2m/s | -22.9°C | 0% | 0hPa | 0V | 00:00:00 | 00:00:00 | 00:00:00 | |
| ARGUS2 | 2026-09-01 11:43:55 | 27.68122 | -82.44767 | 132° | 7km/h | 8592m | 5.2m/s | -22.0°C | 0% | 0hPa | 0V | 00:00:00 | 00:00:00 | 00:00:00 | |
| ARGUS2 | 2026-09-01 11:43:35 | 27.68135 | -82.44807 | 296° | 11km/h | 8502m | 3.3m/s | -21.7°C | 0% | 0hPa | 0V | 00:00:00 | 00:00:00 | 00:00:00 | |
| ARGUS2 | 2026-09-01 11:42:54 | 27.68180 | -82.44859 | 231° | 4km/h | 8298m | 5.8m/s | -21.0°C | 0% | 0hPa | 0V | 00:00:00 | 00:00:00 | 00:00:00 | |
| ARGUS2 | 2026-09-01 11:42:32 | 27.68229 | -82.44846 | 115° | 9km/h | 8202m | 3.4m/s | -20.4°C | 0% | 0hPa | 0V | 00:00:00 | 00:00:00 | 00:00:00 | |
| ARGUS2 | 2026-09-01 11:42:11 | 27.68276 | -82.44840 | 171° | 7km/h | 8117m | 5.3m/s | -19.7°C | 0% | 0hPa | 0V | 00:00:00 | 00:00:00 | 00:00:00 | |
| ARGUS2 | 2026-09-01 11:41:51 | 27.68312 | -82.44832 | 213° | 33km/h | 8024m | 5.4m/s | -19.1°C | 0% | 0hPa | 0V | 00:00:00 | 00:00:00 | 00:00:00 | |
| ARGUS2 | 2026-09-01 11:41:31 | 27.68363 | -82.44831 | 160° | 7km/h | 7908m | 3.4m/s | -18.3°C | 0% | 0hPa | 0V | 00:00:00 | 00:00:00 | 00:00:00 | |
| ARGUS2 | 2026-09-01 11:41:10 | 27.68427 | -82.44827 | 147° | 15km/h | 7817m | 5.0m/s | -17.9°C | 0% | 0hPa | 0V | 00:00:00 | 00:00:00 | 00:00:00 | |
| ARGUS2 | 2026-09-01 11:40:48 | 27.68486 | -82.44807 | 219° | 15km/h | 7729m | 4.1m/s | -17.3°C | 0% | 0hPa | 0V | 00:00:00 | 00:00:00 | 00:00:00 | |
| ARGUS2 | 2026-09-01 11:40:27 | 27.68529 | -82.44795 | 183° | 5km/h | 7640m | 3.4m/s | -16.6°C | 0% | 0hPa | 0V | 00:00:00 | 00:00:00 | 00:00:00 | |
| ARGUS2 | 2026-09-01 11:40:05 | 27.68574 | -82.44783 | 177° | 11km/h | 7548m | 4.4m/s | -16.0°C | 0% | 0hPa | 0V | 00:00:00 | 00:00:00 | 00:00:00 | |
| ARGUS2 | 2026-09-01 11:37:36 | 27.69054 | -82.44541 | 194° | 18km/h | 6812m | 5.3m/s | -10.8°C | 0% | 0hPa | 0V | 00:00:00 | 00:00:00 | 00:00:00 | |
| ARGUS2 | 2026-09-01 11:37:16 | 27.69130 | -82.44492 | 193° | 24km/h | 6714m | 4.5m/s | -10.2°C | 0% | 0hPa | 0V | 00:00:00 | 00:00:00 | 00:00:00 | |
| ARGUS2 | 2026-09-01 11:36:55 | 27.69226 | -82.44432 | 144° | 15km/h | 6608m | 4.1m/s | -9.6°C | 0% | 0hPa | 0V | 00:00:00 | 00:00:00 | 00:00:00 | |
| ARGUS2 | 2026-09-01 11:36:33 | 27.69320 | -82.44387 | 163° | 18km/h | 6495m | 3.3m/s | -9.0°C | 0% | 0hPa | 0V | 00:00:00 | 00:00:00 | 00:00:00 | |
| ARGUS2 | 2026-09-01 11:36:12 | 27.69429 | -82.44328 | 193° | 44km/h | 6380m | 6.6m/s | -8.5°C | 0% | 0hPa | 0V | 00:00:00 | 00:00:00 | 00:00:00 | |
| ARGUS2 | 2026-09-01 11:34:34 | 27.69909 | -82.43746 | 290° | 4km/h | 5818m | 7.1m/s | -5.8°C | 0% | 0hPa | 0V | 00:00:00 | 00:00:00 | 00:00:00 | |
| ARGUS2 | 2026-09-01 11:34:13 | 27.69965 | -82.43621 | 282° | 26km/h | 5688m | 7.5m/s | -5.1°C | 0% | 0hPa | 0V | 00:00:00 | 00:00:00 | 00:00:00 | |
| ARGUS2 | 2026-09-01 11:33:53 | 27.70003 | -82.43465 | 279° | 27km/h | 5579m | 5.9m/s | -4.6°C | 0% | 0hPa | 0V | 00:00:00 | 00:00:00 | 00:00:00 | |
| ARGUS2 | 2026-09-01 11:33:32 | 27.70071 | -82.43340 | 229° | 22km/h | 5451m | 7.0m/s | -3.8°C | 0% | 0hPa | 0V | 00:00:00 | 00:00:00 | 00:00:00 | |
| ARGUS2 | 2026-09-01 11:33:12 | 27.70114 | -82.43197 | 229° | 31km/h | 5327m | 6.2m/s | -4.0°C | 0% | 0hPa | 0V | 00:00:00 | 00:00:00 | 00:00:00 | |
| ARGUS2 | 2026-09-01 11:32:51 | 27.70149 | -82.43076 | 289° | 15km/h | 5206m | 5.4m/s | -3.2°C | 0% | 0hPa | 0V | 00:00:00 | 00:00:00 | 00:00:00 | |
| ARGUS2 | 2026-09-01 11:32:30 | 27.70171 | -82.42938 | 292° | 29km/h | 5087m | 5.9m/s | -2.1°C | 0% | 0hPa | 0V | 00:00:00 | 00:00:00 | 00:00:00 | |
| ARGUS2 | 2026-09-01 11:32:08 | 27.70199 | -82.42809 | 277° | 9km/h | 4965m | 2.9m/s | -1.5°C | 0% | 0hPa | 0V | 00:00:00 | 00:00:00 | 00:00:00 | |
| ARGUS2 | 2026-09-01 11:31:26 | 27.70276 | -82.42586 | 221° | 18km/h | 4727m | 3.7m/s | 0.3°C | 0% | 0hPa | 0V | 00:00:00 | 00:00:00 | 00:00:00 | |
| ARGUS2 | 2026-09-01 11:30:50 | 27.70338 | -82.42361 | 227° | 37km/h | 4528m | 6.3m/s | 1.2°C | 0% | 0hPa | 0V | 00:00:00 | 00:00:00 | 00:00:00 | |
| ARGUS2 | 2026-09-01 11:30:28 | 27.70346 | -82.42253 | 262° | 40km/h | 4407m | 6.4m/s | 1.7°C | 0% | 0hPa | 0V | 00:00:00 | 00:00:00 | 00:00:00 | |
| ARGUS2 | 2026-09-01 11:30:07 | 27.70371 | -82.42163 | 208° | 5km/h | 4277m | 5.3m/s | 2.6°C | 0% | 0hPa | 0V | 00:00:00 | 00:00:00 | 00:00:00 | |
| ARGUS2 | 2026-09-01 11:29:47 | 27.70418 | -82.42048 | 288° | 2km/h | 4167m | 4.7m/s | 3.1°C | 0% | 0hPa | 0V | 00:00:00 | 00:00:00 | 00:00:00 | |
| ARGUS2 | 2026-09-01 11:29:27 | 27.70427 | -82.41958 | 206° | 11km/h | 4058m | 5.3m/s | 4.0°C | 0% | 0hPa | 0V | 00:00:00 | 00:00:00 | 00:00:00 | |
| ARGUS2 | 2026-09-01 11:29:06 | 27.70422 | -82.41896 | 152° | 11km/h | 3941m | 5.2m/s | 4.5°C | 0% | 0hPa | 0V | 00:00:00 | 00:00:00 | 00:00:00 | |
| ARGUS2 | 2026-09-01 11:28:45 | 27.70458 | -82.41801 | 222° | 22km/h | 3826m | 7.2m/s | 5.2°C | 0% | 0hPa | 0V | 00:00:00 | 00:00:00 | 00:00:00 | |
| ARGUS2 | 2026-09-01 11:28:24 | 27.70487 | -82.41741 | 215° | 20km/h | 3723m | 4.9m/s | 6.0°C | 0% | 0hPa | 0V | 00:00:00 | 00:00:00 | 00:00:00 | |
| ARGUS2 | 2026-09-01 11:28:04 | 27.70495 | -82.41658 | 340° | 13km/h | 3615m | 6.6m/s | 6.6°C | 0% | 0hPa | 0V | 00:00:00 | 00:00:00 | 00:00:00 | |
| ARGUS2 | 2026-09-01 11:25:21 | 27.70415 | -82.41164 | 309° | 24km/h | 2703m | 5.0m/s | 11.5°C | 0% | 0hPa | 0V | 00:00:00 | 00:00:00 | 00:00:00 | |
| ARGUS2 | 2026-09-01 11:24:27 | 27.70401 | -82.41032 | 157° | 16km/h | 2402m | 5.0m/s | 13.3°C | 0% | 0hPa | 0V | 00:00:00 | 00:00:00 | 00:00:00 | |
| ARGUS2 | 2026-09-01 11:24:03 | 27.70402 | -82.40962 | 196° | 15km/h | 2266m | 4.7m/s | 14.1°C | 0% | 0hPa | 0V | 00:00:00 | 00:00:00 | 00:00:00 | |
| ARGUS2 | 2026-09-01 11:23:43 | 27.70408 | -82.40903 | 267° | 22km/h | 2150m | 5.8m/s | 14.7°C | 0% | 0hPa | 0V | 00:00:00 | 00:00:00 | 00:00:00 | |
| ARGUS2 | 2026-09-01 11:23:22 | 27.70421 | -82.40823 | 190° | 16km/h | 2034m | 5.0m/s | 15.1°C | 0% | 0hPa | 0V | 00:00:00 | 00:00:00 | 00:00:00 | |
| ARGUS2 | 2026-09-01 11:23:00 | 27.70429 | -82.40780 | 19° | 13km/h | 1922m | 4.6m/s | 15.6°C | 0% | 0hPa | 0V | 00:00:00 | 00:00:00 | 00:00:00 | |
| ARGUS2 | 2026-09-01 11:22:34 | 27.70434 | -82.40708 | 259° | 20km/h | 1772m | 5.2m/s | 16.2°C | 0% | 0hPa | 0V | 00:00:00 | 00:00:00 | 00:00:00 |